createdAt,value
2023-05-15T00:01:25.751Z,117.53
2023-05-15T00:03:52.465Z,121.90
2023-05-15T00:06:19.986Z,127.43
2023-05-15T00:08:46.617Z,117.78
2023-05-15T00:11:13.203Z,125.18
2023-05-15T00:13:39.799Z,124.18
2023-05-15T00:16:08.195Z,124.30
2023-05-15T00:18:35.107Z,121.85
2023-05-15T00:21:01.799Z,114.80
2023-05-15T00:23:28.452Z,118.85
2023-05-15T00:25:55.017Z,119.53
2023-05-15T00:28:21.623Z,124.07
2023-05-15T00:30:48.218Z,125.28
2023-05-15T00:33:14.787Z,123.65
2023-05-15T00:35:41.384Z,124.00
2023-05-15T00:38:08.040Z,123.47
2023-05-15T00:40:36.455Z,128.57
2023-05-15T00:43:05.102Z,127.78
2023-05-15T00:45:32.499Z,123.63
2023-05-15T00:48:00.837Z,122.07
2023-05-15T00:50:28.065Z,129.20
2023-05-15T00:52:55.911Z,124.65
2023-05-15T00:55:23.005Z,123.07
2023-05-15T00:57:51.312Z,125.47
2023-05-15T01:00:18.668Z,121.70
2023-05-15T01:02:46.397Z,128.43
2023-05-15T01:05:13.401Z,122.43
2023-05-15T01:07:52.096Z,123.35
2023-05-15T01:10:19.702Z,118.72
2023-05-15T01:12:50.748Z,121.18
2023-05-15T01:15:17.508Z,121.35
2023-05-15T01:17:44.599Z,123.55
2023-05-15T01:20:12.293Z,125.63
2023-05-15T01:22:46.192Z,124.13
2023-05-15T01:25:46.364Z,121.07
2023-05-15T01:28:18.508Z,121.22
2023-05-15T01:30:45.898Z,122.63
2023-05-15T01:33:21.174Z,131.68
2023-05-15T01:35:55.856Z,122.32
2023-05-15T01:38:31.344Z,122.85
2023-05-15T01:41:05.055Z,123.40
2023-05-15T01:43:35.263Z,120.27
2023-05-15T01:46:03.054Z,121.03
2023-05-15T01:48:33.381Z,121.85
2023-05-15T01:51:03.783Z,125.28
2023-05-15T01:53:36.134Z,121.97
2023-05-15T01:56:04.192Z,117.50
2023-05-15T01:58:34.602Z,117.72
2023-05-15T02:01:01.858Z,118.13
2023-05-15T02:03:29.807Z,119.07
2023-05-15T02:05:56.807Z,119.65
2023-05-15T02:08:25.747Z,121.20
2023-05-15T02:10:53.155Z,124.82
2023-05-15T02:13:20.113Z,122.35
2023-05-15T02:15:46.842Z,119.82
2023-05-15T02:18:13.457Z,123.13
2023-05-15T02:20:40.064Z,119.30
2023-05-15T02:23:06.665Z,116.05
2023-05-15T02:25:50.058Z,117.47
2023-05-15T02:28:30.832Z,113.80
2023-05-15T02:31:08.187Z,117.97
2023-05-15T02:33:50.615Z,116.40
2023-05-15T02:36:22.764Z,118.28
2023-05-15T02:38:52.798Z,120.68
2023-05-15T02:41:19.753Z,121.45
2023-05-15T02:43:50.625Z,127.03
2023-05-15T02:46:19.779Z,123.38
2023-05-15T02:48:47.795Z,130.25
2023-05-15T02:51:14.417Z,129.20
2023-05-15T02:53:42.062Z,126.60
2023-05-15T02:56:09.444Z,126.88
2023-05-15T02:58:36.923Z,124.45
2023-05-15T03:01:04.526Z,123.70
2023-05-15T03:03:31.270Z,128.38
2023-05-15T03:05:57.818Z,128.15
2023-05-15T03:08:24.434Z,133.10
2023-05-15T03:10:51.009Z,127.88
2023-05-15T03:13:17.824Z,129.50
2023-05-15T03:15:45.492Z,123.68
2023-05-15T03:18:12.219Z,126.55
2023-05-15T03:20:38.863Z,125.50
2023-05-15T03:23:05.495Z,123.28
2023-05-15T03:25:32.048Z,126.28
2023-05-15T03:27:59.941Z,130.10
2023-05-15T03:30:26.540Z,124.55
2023-05-15T03:32:53.254Z,127.97
2023-05-15T03:35:19.872Z,125.88
2023-05-15T03:37:46.508Z,127.45
2023-05-15T03:40:13.782Z,123.50
2023-05-15T03:42:40.350Z,125.20
2023-05-15T03:45:07.725Z,127.25
2023-05-15T03:47:34.423Z,130.20
2023-05-15T03:50:01.003Z,132.90
2023-05-15T03:52:27.659Z,134.50
2023-05-15T03:54:54.259Z,129.20
2023-05-15T03:57:20.842Z,135.80
2023-05-15T03:59:47.413Z,137.27
2023-05-15T04:02:14.002Z,142.80
2023-05-15T04:04:40.794Z,144.98
2023-05-15T04:07:07.844Z,143.52
2023-05-15T04:09:34.388Z,143.80
2023-05-15T04:12:00.936Z,143.63
2023-05-15T04:14:28.498Z,141.40
2023-05-15T04:16:55.087Z,160.10
2023-05-15T04:19:21.791Z,150.55
2023-05-15T04:21:48.416Z,150.52
2023-05-15T04:24:14.962Z,153.20
2023-05-15T04:26:41.994Z,153.30
2023-05-15T04:29:09.409Z,144.18
2023-05-15T04:31:36.304Z,149.93
2023-05-15T04:34:04.400Z,152.45
2023-05-15T04:36:31.772Z,146.70
2023-05-15T04:38:58.392Z,139.98
2023-05-15T04:41:25.097Z,133.68
2023-05-15T04:43:51.678Z,133.10
2023-05-15T04:46:18.328Z,129.48
2023-05-15T04:48:44.922Z,124.80
2023-05-15T04:51:11.964Z,127.30
2023-05-15T04:53:38.560Z,128.65
2023-05-15T04:56:05.421Z,126.07
2023-05-15T04:58:32.069Z,128.55
2023-05-15T05:00:59.137Z,129.32
2023-05-15T05:03:26.404Z,137.52
2023-05-15T05:05:52.991Z,132.40
2023-05-15T05:08:19.568Z,140.00
2023-05-15T05:10:46.100Z,136.25
2023-05-15T05:13:12.713Z,134.00
2023-05-15T05:15:39.309Z,142.75
2023-05-15T05:18:06.298Z,144.25
2023-05-15T05:20:32.877Z,148.85
2023-05-15T05:22:59.458Z,148.73
2023-05-15T05:25:26.301Z,152.85
2023-05-15T05:27:53.102Z,151.23
2023-05-15T05:30:19.772Z,150.45
2023-05-15T05:32:46.373Z,146.80
2023-05-15T05:35:12.955Z,146.07
2023-05-15T05:37:41.170Z,148.05
2023-05-15T05:40:09.026Z,147.35
2023-05-15T05:42:35.636Z,154.45
2023-05-15T05:45:02.314Z,159.15
2023-05-15T05:47:28.987Z,165.27
2023-05-15T05:49:55.749Z,175.65
2023-05-15T05:52:22.389Z,181.27
2023-05-15T05:54:50.352Z,187.10
2023-05-15T05:57:17.007Z,189.50
2023-05-15T05:59:43.872Z,190.43
2023-05-15T06:02:11.347Z,189.60
2023-05-15T06:04:41.358Z,184.43
2023-05-15T06:07:08.698Z,177.98
2023-05-15T06:09:35.262Z,175.88
2023-05-15T06:12:04.673Z,186.40
2023-05-15T06:14:31.527Z,176.63
2023-05-15T06:16:58.131Z,171.63
2023-05-15T06:19:24.856Z,136.95
2023-05-15T06:21:51.454Z,128.38
2023-05-15T06:24:18.108Z,143.23
2023-05-15T06:26:45.010Z,166.05
2023-05-15T06:29:11.592Z,180.18
2023-05-15T06:31:38.116Z,150.93
2023-05-15T06:34:04.666Z,154.65
2023-05-15T06:36:31.294Z,145.10
2023-05-15T06:38:57.908Z,149.38
2023-05-15T06:41:24.477Z,134.55
2023-05-15T06:43:51.037Z,135.25
2023-05-15T06:46:19.191Z,126.43
2023-05-15T06:48:46.004Z,128.40
2023-05-15T06:51:12.629Z,126.45
2023-05-15T06:53:39.245Z,123.57
2023-05-15T06:56:06.285Z,128.43
2023-05-15T06:58:32.873Z,126.80
2023-05-15T07:00:59.529Z,122.47
2023-05-15T07:03:27.768Z,126.15
2023-05-15T07:05:54.325Z,137.73
2023-05-15T07:08:20.905Z,137.48
2023-05-15T07:10:48.707Z,151.93
2023-05-15T07:13:20.052Z,149.82
2023-05-15T07:15:47.144Z,160.15
2023-05-15T07:18:13.777Z,150.60
2023-05-15T07:20:40.509Z,131.43
2023-05-15T07:23:07.092Z,113.88
2023-05-15T07:25:33.769Z,110.18
2023-05-15T07:28:00.506Z,115.50
2023-05-15T07:30:27.346Z,106.65
2023-05-15T07:32:54.307Z,112.32
2023-05-15T07:35:20.962Z,107.28
2023-05-15T07:37:47.575Z,114.40
2023-05-15T07:40:15.546Z,114.05
2023-05-15T07:42:44.277Z,124.28
2023-05-15T07:45:11.285Z,129.80
2023-05-15T07:47:37.951Z,139.10
2023-05-15T07:50:04.840Z,136.15
2023-05-15T07:52:31.375Z,115.65
2023-05-15T07:54:58.256Z,117.30
2023-05-15T07:57:25.666Z,118.22
2023-05-15T07:59:52.274Z,124.97
2023-05-15T08:02:18.906Z,130.57
2023-05-15T08:04:45.662Z,120.40
2023-05-15T08:07:13.953Z,114.57
2023-05-15T08:09:40.782Z,120.78
2023-05-15T08:12:23.517Z,130.93
2023-05-15T08:14:51.569Z,132.32
2023-05-15T08:17:19.040Z,136.40
2023-05-15T08:19:45.680Z,119.10
2023-05-15T08:22:12.270Z,123.38
2023-05-15T08:24:40.321Z,129.45
2023-05-15T08:27:08.540Z,129.57
2023-05-15T08:29:37.355Z,131.30
2023-05-15T08:32:07.034Z,113.00
2023-05-15T08:34:33.645Z,109.32
2023-05-15T08:37:00.253Z,124.78
2023-05-15T08:39:29.621Z,122.35
2023-05-15T08:42:09.375Z,121.47
2023-05-15T08:44:36.779Z,111.13
2023-05-15T08:47:05.352Z,118.60
2023-05-15T08:49:48.150Z,130.13
2023-05-15T08:52:15.720Z,122.25
2023-05-15T08:54:42.742Z,153.55
2023-05-15T08:57:10.363Z,133.82
2023-05-15T08:59:37.833Z,127.65
2023-05-15T09:02:04.584Z,140.75
2023-05-15T09:04:31.270Z,161.15
2023-05-15T09:07:00.872Z,160.10
2023-05-15T09:09:29.446Z,108.03
2023-05-15T09:11:56.312Z,117.80
2023-05-15T09:14:22.861Z,118.75
2023-05-15T09:16:53.070Z,173.88
2023-05-15T09:19:21.330Z,133.38
2023-05-15T09:21:48.613Z,116.25
2023-05-15T09:24:23.684Z,109.93
2023-05-15T09:27:07.382Z,83.72
2023-05-15T09:29:36.141Z,67.97
2023-05-15T09:32:07.535Z,64.80
2023-05-15T09:34:39.331Z,60.97
2023-05-15T09:37:07.810Z,63.10
2023-05-15T09:39:42.243Z,56.88
2023-05-15T09:42:10.654Z,40.00
2023-05-15T09:44:41.373Z,43.03
2023-05-15T09:47:08.218Z,27.92
2023-05-15T09:49:34.999Z,43.63
2023-05-15T09:52:02.500Z,40.22
2023-05-15T09:54:31.619Z,40.35
2023-05-15T09:57:11.550Z,43.38
2023-05-15T09:59:45.791Z,47.88
2023-05-15T10:04:56.944Z,45.72
2023-05-15T10:07:34.938Z,29.67
2023-05-15T10:10:03.521Z,28.23
2023-05-15T10:12:32.392Z,22.83
2023-05-15T10:15:00.833Z,21.58
2023-05-15T10:17:28.687Z,19.05
2023-05-15T10:19:59.177Z,18.13
2023-05-15T10:22:30.129Z,18.40
2023-05-15T10:25:35.384Z,14.05
2023-05-15T10:30:29.331Z,13.02
2023-05-15T10:32:57.431Z,12.77
2023-05-15T10:35:24.956Z,14.95
2023-05-15T10:37:51.644Z,10.85
2023-05-15T10:40:18.340Z,10.80
2023-05-15T10:42:47.550Z,15.32
2023-05-15T10:45:14.416Z,15.70
2023-05-15T10:47:43.011Z,16.67
2023-05-15T10:50:11.633Z,16.27
2023-05-15T10:52:39.237Z,18.88
2023-05-15T10:55:13.679Z,19.55
2023-05-15T10:57:40.676Z,18.75
2023-05-15T11:00:22.228Z,20.83
2023-05-15T11:02:50.934Z,19.00
2023-05-15T11:05:17.566Z,17.77
2023-05-15T11:07:44.162Z,14.90
2023-05-15T11:10:28.727Z,18.17
2023-05-15T11:15:22.456Z,16.52
2023-05-15T11:18:07.659Z,15.40
2023-05-15T11:20:42.116Z,14.85
2023-05-15T11:23:09.315Z,15.32
2023-05-15T11:25:37.258Z,12.35
2023-05-15T11:28:04.991Z,15.00
2023-05-15T11:30:39.643Z,13.55
2023-05-15T11:33:10.053Z,11.48
2023-05-15T11:35:47.073Z,10.60
2023-05-15T11:38:27.469Z,9.93
2023-05-15T11:41:02.614Z,9.35
2023-05-15T11:43:36.446Z,9.88
2023-05-15T11:46:03.018Z,9.52
2023-05-15T11:48:39.501Z,9.82
2023-05-15T11:51:22.080Z,9.02
2023-05-15T11:53:53.838Z,9.93
2023-05-15T11:56:23.099Z,10.27
2023-05-15T11:58:57.664Z,9.93
2023-05-15T12:01:24.331Z,10.90
2023-05-15T12:03:53.302Z,11.50
2023-05-15T12:06:20.598Z,11.80
2023-05-15T12:08:53.916Z,9.80
2023-05-15T12:11:24.667Z,10.10
2023-05-15T12:13:53.924Z,9.80
2023-05-15T12:16:26.416Z,10.40
2023-05-15T12:18:53.491Z,8.90
2023-05-15T12:21:20.050Z,10.35
2023-05-15T12:26:27.411Z,11.13
2023-05-15T12:28:55.303Z,11.40
2023-05-15T12:31:22.100Z,10.40
2023-05-15T12:33:49.206Z,10.10
2023-05-15T12:36:19.757Z,10.50
2023-05-15T12:38:46.426Z,9.23
2023-05-15T12:41:14.199Z,10.38
2023-05-15T12:43:41.384Z,10.20
2023-05-15T12:46:08.160Z,10.15
2023-05-15T12:48:36.328Z,11.52
2023-05-15T12:51:07.975Z,11.68
2023-05-15T12:53:34.972Z,11.90
2023-05-15T12:56:02.198Z,10.55
2023-05-15T12:58:29.036Z,10.15
2023-05-15T13:00:56.965Z,10.30
2023-05-15T13:03:25.120Z,9.38
2023-05-15T13:05:52.268Z,10.90
2023-05-15T13:08:19.215Z,10.55
2023-05-15T13:10:47.416Z,10.50
2023-05-15T13:13:14.334Z,8.98
2023-05-15T13:15:44.166Z,9.70
2023-05-15T13:18:13.163Z,9.40
2023-05-15T13:20:41.114Z,9.32
2023-05-15T13:23:08.777Z,10.32
2023-05-15T13:25:36.083Z,9.02
2023-05-15T13:28:05.172Z,8.85
2023-05-15T13:30:35.666Z,9.20
2023-05-15T13:33:03.927Z,8.50
2023-05-15T13:35:31.009Z,8.90
2023-05-15T13:37:57.663Z,8.65
2023-05-15T13:40:24.572Z,8.10
2023-05-15T13:42:51.312Z,9.70
2023-05-15T13:45:17.956Z,9.45
2023-05-15T13:47:44.953Z,10.10
2023-05-15T13:50:14.553Z,13.88
2023-05-15T13:52:42.376Z,10.65
2023-05-15T13:55:09.932Z,13.38
2023-05-15T13:57:41.258Z,11.35
2023-05-15T14:00:13.161Z,16.45
2023-05-15T14:02:41.685Z,11.60
2023-05-15T14:05:12.528Z,11.00
2023-05-15T14:07:39.396Z,10.07
2023-05-15T14:10:06.776Z,9.55
2023-05-15T14:12:34.055Z,11.00
2023-05-15T14:15:01.133Z,10.90
2023-05-15T14:17:28.919Z,10.68
2023-05-15T14:19:55.601Z,9.60
2023-05-15T14:22:25.052Z,9.45
2023-05-15T14:24:54.613Z,10.40
2023-05-15T14:27:21.262Z,11.15
2023-05-15T14:29:49.150Z,10.75
2023-05-15T14:32:16.864Z,10.65
2023-05-15T14:34:43.816Z,11.02
2023-05-15T14:37:10.454Z,10.55
2023-05-15T14:39:37.129Z,11.27
2023-05-15T14:42:03.973Z,11.40
2023-05-15T14:44:30.633Z,13.27
2023-05-15T14:47:07.697Z,13.05
2023-05-15T14:49:35.188Z,11.68
2023-05-15T14:52:02.265Z,11.80
2023-05-15T14:54:29.453Z,10.65
2023-05-15T14:56:57.532Z,11.10
2023-05-15T14:59:25.612Z,11.13
2023-05-15T15:01:52.212Z,11.50
2023-05-15T15:04:18.914Z,10.38
2023-05-15T15:06:47.778Z,11.15
2023-05-15T15:09:14.357Z,11.18
2023-05-15T15:11:41.065Z,10.68
2023-05-15T15:14:07.623Z,9.95
2023-05-15T15:16:34.381Z,10.32
2023-05-15T15:19:01.059Z,11.10
2023-05-15T15:21:27.788Z,11.80
2023-05-15T15:23:55.203Z,11.63
2023-05-15T15:26:21.817Z,10.52
2023-05-15T15:28:48.502Z,10.10
2023-05-15T15:31:15.765Z,10.60
2023-05-15T15:33:42.438Z,10.02
2023-05-15T15:36:09.167Z,10.75
2023-05-15T15:38:36.047Z,10.25
2023-05-15T15:41:03.593Z,10.35
2023-05-15T15:43:30.266Z,11.25
2023-05-15T15:45:56.897Z,10.15
2023-05-15T15:48:23.822Z,10.32
2023-05-15T15:50:52.092Z,11.65
2023-05-15T15:53:18.677Z,11.23
2023-05-15T15:55:47.007Z,10.80
2023-05-15T15:58:14.648Z,10.60
2023-05-15T16:00:41.405Z,11.00
2023-05-15T16:03:08.303Z,10.60
2023-05-15T16:05:34.990Z,9.70
2023-05-15T16:08:01.618Z,10.23
2023-05-15T16:10:28.496Z,10.32
2023-05-15T16:12:55.431Z,9.60
2023-05-15T16:15:24.066Z,9.48
2023-05-15T16:17:53.564Z,9.10
2023-05-15T16:20:21.114Z,9.80
2023-05-15T16:22:47.688Z,10.35
2023-05-15T16:25:14.204Z,11.25
2023-05-15T16:27:40.791Z,10.88
2023-05-15T16:30:09.165Z,11.13
2023-05-15T16:32:36.197Z,10.32
2023-05-15T16:35:03.183Z,10.15
2023-05-15T16:37:29.778Z,10.30
2023-05-15T16:39:56.353Z,10.13
2023-05-15T16:42:23.290Z,9.68
2023-05-15T16:44:49.904Z,10.13
2023-05-15T16:47:16.569Z,10.18
2023-05-15T16:49:44.366Z,12.15
2023-05-15T16:52:12.043Z,12.50
2023-05-15T16:54:41.543Z,12.68
2023-05-15T16:57:08.179Z,12.80
2023-05-15T16:59:34.781Z,13.32
2023-05-15T17:02:01.439Z,14.40
2023-05-15T17:04:29.092Z,13.40
2023-05-15T17:06:57.029Z,13.27
2023-05-15T17:09:23.615Z,13.88
2023-05-15T17:11:50.172Z,14.60
2023-05-15T17:14:16.887Z,13.85
2023-05-15T17:16:43.613Z,14.57
2023-05-15T17:19:10.355Z,16.92
2023-05-15T17:21:37.530Z,17.42
2023-05-15T17:24:04.286Z,17.80
2023-05-15T17:26:30.860Z,20.20
2023-05-15T17:28:57.445Z,23.17
2023-05-15T17:31:24.050Z,23.48
2023-05-15T17:33:50.831Z,25.85
2023-05-15T17:36:17.438Z,24.42
2023-05-15T17:38:44.023Z,28.50
2023-05-15T17:41:10.630Z,27.48
2023-05-15T17:43:37.191Z,27.73
2023-05-15T17:46:05.658Z,29.00
2023-05-15T17:48:33.014Z,26.90
2023-05-15T17:50:59.629Z,25.13
2023-05-15T17:53:26.406Z,24.85
2023-05-15T17:55:53.054Z,23.55
2023-05-15T17:58:21.233Z,23.05
2023-05-15T18:00:47.861Z,21.40
2023-05-15T18:03:14.701Z,20.10
2023-05-15T18:05:41.357Z,20.50
2023-05-15T18:08:08.171Z,25.75
2023-05-15T18:10:34.742Z,32.15
2023-05-15T18:13:01.311Z,34.92
2023-05-15T18:15:28.232Z,35.47
2023-05-15T18:20:21.740Z,20.98
2023-05-15T18:22:49.538Z,16.17
2023-05-15T18:25:16.243Z,13.88
2023-05-15T18:27:43.084Z,13.50
2023-05-15T18:30:10.136Z,13.75
2023-05-15T18:32:36.812Z,13.57
2023-05-15T18:35:03.880Z,12.15
2023-05-15T18:37:30.646Z,12.85
2023-05-15T18:39:58.741Z,14.02
2023-05-15T18:42:26.018Z,22.85
2023-05-15T18:44:52.705Z,22.02
2023-05-15T18:47:19.404Z,23.17
2023-05-15T18:49:46.188Z,25.73
2023-05-15T18:52:12.873Z,28.50
2023-05-15T18:54:41.289Z,41.17
2023-05-15T18:57:08.344Z,39.25
2023-05-15T18:59:35.082Z,28.70
2023-05-15T19:02:01.830Z,47.35
2023-05-15T19:04:28.459Z,40.63
2023-05-15T19:06:55.042Z,44.80
2023-05-15T19:09:21.742Z,53.00
2023-05-15T19:11:51.734Z,75.78
2023-05-15T19:14:19.031Z,108.45
2023-05-15T19:16:46.267Z,132.45
2023-05-15T19:19:13.476Z,180.75
2023-05-15T19:21:40.318Z,225.75
2023-05-15T19:24:07.163Z,247.68
2023-05-15T19:26:34.079Z,282.60
2023-05-15T19:29:00.826Z,322.02
2023-05-15T19:31:31.848Z,340.92
2023-05-15T19:33:59.808Z,361.95
2023-05-15T19:36:26.813Z,373.98
2023-05-15T19:38:53.546Z,382.95
2023-05-15T19:41:20.118Z,392.17
2023-05-15T19:43:47.068Z,393.25
2023-05-15T19:46:14.001Z,401.10
2023-05-15T19:48:40.811Z,397.08
2023-05-15T19:51:07.393Z,394.73
2023-05-15T19:53:34.490Z,400.50
2023-05-15T19:56:01.061Z,392.95
2023-05-15T19:58:27.925Z,375.25
2023-05-15T20:00:54.727Z,358.35
2023-05-15T20:03:22.270Z,351.15
2023-05-15T20:05:48.944Z,342.88
2023-05-15T20:08:17.101Z,338.92
2023-05-15T20:10:44.570Z,322.67
2023-05-15T20:13:11.713Z,318.10
2023-05-15T20:15:39.949Z,294.88
2023-05-15T20:18:07.436Z,280.52
2023-05-15T20:20:34.791Z,280.42
2023-05-15T20:23:01.359Z,254.75
2023-05-15T20:25:29.181Z,239.10
2023-05-15T20:27:57.171Z,223.90
2023-05-15T20:30:24.234Z,203.50
2023-05-15T20:32:51.120Z,183.85
2023-05-15T20:35:17.917Z,160.55
2023-05-15T20:37:45.420Z,166.52
2023-05-15T20:40:12.981Z,153.25
2023-05-15T20:42:39.949Z,137.93
2023-05-15T20:45:08.720Z,122.60
2023-05-15T20:47:35.980Z,109.18
2023-05-15T20:50:02.673Z,102.75
2023-05-15T20:52:29.387Z,101.63
2023-05-15T20:54:56.001Z,90.00
2023-05-15T20:57:22.760Z,82.70
2023-05-15T20:59:49.368Z,75.07
2023-05-15T21:02:16.070Z,74.65
2023-05-15T21:04:42.939Z,66.25
2023-05-15T21:07:09.954Z,60.42
2023-05-15T21:09:36.678Z,57.20
2023-05-15T21:12:04.074Z,56.85
2023-05-15T21:14:30.912Z,55.85
2023-05-15T21:16:57.778Z,53.05
2023-05-15T21:19:24.627Z,52.22
2023-05-15T21:21:51.325Z,53.47
2023-05-15T21:24:18.100Z,48.10
2023-05-15T21:26:44.820Z,43.45
2023-05-15T21:29:11.570Z,43.03
2023-05-15T21:31:38.549Z,43.35
2023-05-15T21:34:05.290Z,41.40
2023-05-15T21:36:31.909Z,41.75
2023-05-15T21:38:58.440Z,40.72
2023-05-15T21:41:26.136Z,41.60
2023-05-15T21:43:52.760Z,41.80
2023-05-15T21:46:19.485Z,39.50
2023-05-15T21:48:46.624Z,42.45
2023-05-15T21:51:13.360Z,46.50
2023-05-15T21:53:40.053Z,50.72
2023-05-15T21:56:07.356Z,48.55
2023-05-15T21:58:33.926Z,50.55
2023-05-15T22:01:00.652Z,52.03
2023-05-15T22:03:27.520Z,51.25
2023-05-15T22:05:54.256Z,52.78
2023-05-15T22:08:21.619Z,61.30
2023-05-15T22:10:49.193Z,63.22
2023-05-15T22:13:15.785Z,64.00
2023-05-15T22:15:42.977Z,65.03
2023-05-15T22:18:09.902Z,64.32
2023-05-15T22:20:36.744Z,65.63
2023-05-15T22:23:03.359Z,66.80
2023-05-15T22:25:30.069Z,73.65
2023-05-15T22:27:56.879Z,76.85
2023-05-15T22:30:23.721Z,84.55
2023-05-15T22:32:50.296Z,85.65
2023-05-15T22:35:18.027Z,87.28
2023-05-15T22:37:45.550Z,83.82
2023-05-15T22:40:12.745Z,88.70
2023-05-15T22:42:39.323Z,87.28
2023-05-15T22:45:07.163Z,80.22
2023-05-15T22:47:33.967Z,85.70
2023-05-15T22:50:00.758Z,89.30
2023-05-15T22:52:27.388Z,95.68
2023-05-15T22:54:53.992Z,99.63
2023-05-15T22:57:20.586Z,95.40
2023-05-15T22:59:47.297Z,85.38
2023-05-15T23:02:13.861Z,84.72
2023-05-15T23:04:40.504Z,87.45
2023-05-15T23:07:07.184Z,82.93
2023-05-15T23:09:33.807Z,85.43
2023-05-15T23:12:00.797Z,90.03
2023-05-15T23:14:27.408Z,94.07
2023-05-15T23:16:54.069Z,92.82
2023-05-15T23:19:20.780Z,101.78
2023-05-15T23:21:47.441Z,108.28
2023-05-15T23:24:14.019Z,114.20
2023-05-15T23:26:40.694Z,106.53
2023-05-15T23:29:07.278Z,111.93
2023-05-15T23:31:34.355Z,115.13
2023-05-15T23:34:01.009Z,118.82
2023-05-15T23:36:27.566Z,123.93
2023-05-15T23:38:54.408Z,127.47
2023-05-15T23:41:22.888Z,128.07
2023-05-15T23:43:52.581Z,125.60
2023-05-15T23:46:19.321Z,125.85
2023-05-15T23:48:46.038Z,133.75
2023-05-15T23:51:12.850Z,137.40
2023-05-15T23:53:39.398Z,140.20
2023-05-15T23:56:06.595Z,132.65
2023-05-15T23:58:33.630Z,142.00
